createdAt,value
2019-01-16T00:03:38.434Z,9.57
2019-01-16T00:08:58.410Z,10.40
2019-01-16T00:14:07.941Z,9.80
2019-01-16T00:19:23.734Z,9.53
2019-01-16T00:24:34.426Z,8.80
2019-01-16T00:29:43.930Z,9.43
2019-01-16T00:34:59.332Z,8.80
2019-01-16T00:40:11.897Z,8.07
2019-01-16T00:45:22.695Z,8.43
2019-01-16T00:51:31.003Z,8.67
2019-01-16T00:57:42.167Z,7.87
2019-01-16T01:02:52.791Z,7.30
2019-01-16T01:08:13.551Z,6.83
2019-01-16T01:15:32.273Z,7.00
2019-01-16T01:22:48.263Z,5.90
2019-01-16T01:28:05.112Z,5.77
2019-01-16T01:34:18.603Z,5.27
2019-01-16T01:39:29.974Z,5.33
2019-01-16T01:45:38.471Z,5.47
2019-01-16T01:50:53.734Z,5.73
2019-01-16T01:56:06.627Z,5.87
2019-01-16T02:01:33.995Z,6.30
2019-01-16T02:06:45.759Z,6.37
2019-01-16T02:13:58.644Z,6.63
2019-01-16T02:19:09.272Z,6.40
2019-01-16T02:25:21.286Z,5.90
2019-01-16T02:32:35.942Z,6.37
2019-01-16T02:37:45.808Z,5.87
2019-01-16T02:42:59.283Z,6.03
2019-01-16T02:48:18.818Z,6.57
2019-01-16T02:53:29.741Z,6.53
2019-01-16T02:59:13.221Z,6.43
2019-01-16T03:04:38.895Z,6.33
2019-01-16T03:10:05.429Z,7.13
2019-01-16T03:15:17.135Z,7.40
2019-01-16T03:20:32.872Z,7.50
2019-01-16T03:25:43.256Z,7.93
2019-01-16T03:30:58.808Z,7.47
2019-01-16T03:36:09.850Z,8.43
2019-01-16T03:41:22.261Z,8.77
2019-01-16T03:47:06.692Z,8.93
2019-01-16T03:52:17.357Z,9.03
2019-01-16T03:57:59.362Z,9.27
2019-01-16T04:03:10.329Z,8.47
2019-01-16T04:08:21.167Z,9.30
2019-01-16T04:13:31.659Z,9.10
2019-01-16T04:18:42.618Z,9.47
2019-01-16T04:23:55.146Z,11.43
2019-01-16T04:29:05.828Z,11.10
2019-01-16T04:34:16.727Z,12.17
2019-01-16T04:39:27.766Z,12.63
2019-01-16T04:44:39.256Z,13.90
2019-01-16T04:49:49.994Z,14.50
2019-01-16T04:55:02.607Z,14.63
2019-01-16T05:00:17.645Z,14.63
2019-01-16T05:05:28.282Z,16.57
2019-01-16T05:10:38.784Z,16.63
2019-01-16T05:15:51.272Z,16.17
2019-01-16T05:21:10.693Z,15.60
2019-01-16T05:28:25.387Z,15.13
2019-01-16T05:33:37.828Z,14.57
2019-01-16T05:38:48.452Z,15.03
2019-01-16T05:44:31.292Z,15.30
2019-01-16T05:50:44.676Z,15.93
2019-01-16T05:56:03.895Z,15.50
2019-01-16T06:01:22.425Z,15.33
2019-01-16T06:06:32.959Z,14.23
2019-01-16T06:11:43.675Z,13.57
2019-01-16T06:16:54.484Z,13.33
2019-01-16T06:22:04.019Z,13.17
2019-01-16T06:27:15.815Z,12.03
2019-01-16T06:32:29.166Z,11.37
2019-01-16T06:37:42.924Z,12.57
2019-01-16T06:43:14.030Z,12.40
2019-01-16T06:48:38.828Z,12.90
2019-01-16T06:53:49.460Z,12.90
2019-01-16T06:59:01.326Z,13.63
2019-01-16T07:04:15.168Z,14.07
2019-01-16T07:10:29.861Z,14.50
2019-01-16T07:15:41.754Z,13.13
2019-01-16T07:20:52.369Z,13.60
2019-01-16T07:26:05.821Z,13.93
2019-01-16T07:31:27.120Z,13.43
2019-01-16T07:36:41.579Z,14.77
2019-01-16T07:43:54.611Z,15.37
2019-01-16T07:49:13.094Z,16.33
2019-01-16T07:54:26.896Z,14.57
2019-01-16T07:59:38.360Z,14.87
2019-01-16T08:04:48.775Z,14.47
2019-01-16T08:10:04.710Z,14.27
2019-01-16T08:15:16.734Z,14.33
2019-01-16T08:20:43.225Z,13.87
2019-01-16T08:25:55.427Z,13.23
2019-01-16T08:31:09.691Z,14.13
2019-01-16T08:36:20.737Z,12.53
2019-01-16T08:41:43.522Z,11.70
2019-01-16T08:46:55.122Z,12.70
2019-01-16T08:52:05.850Z,12.17
2019-01-16T08:57:16.292Z,12.33
2019-01-16T09:02:29.876Z,11.70
2019-01-16T09:07:43.781Z,11.63
2019-01-16T09:12:54.290Z,10.67
2019-01-16T09:18:07.836Z,10.50
2019-01-16T09:23:18.802Z,10.77
2019-01-16T09:28:38.894Z,10.47
2019-01-16T09:33:52.539Z,10.53
2019-01-16T09:39:03.797Z,10.37
2019-01-16T09:46:18.642Z,10.83
2019-01-16T09:51:31.711Z,9.73
2019-01-16T09:57:02.372Z,9.57
2019-01-16T10:02:16.989Z,8.70
2019-01-16T10:07:31.382Z,7.83
2019-01-16T10:12:41.319Z,8.37
2019-01-16T10:17:58.330Z,8.13
2019-01-16T10:23:22.966Z,8.17
2019-01-16T10:28:32.632Z,8.50
2019-01-16T10:33:47.215Z,8.30
2019-01-16T10:38:59.862Z,7.63
2019-01-16T10:45:14.511Z,8.23
2019-01-16T10:50:27.967Z,7.57
2019-01-16T10:55:41.495Z,7.33
2019-01-16T11:00:54.435Z,7.67
2019-01-16T11:08:11.373Z,6.73
2019-01-16T11:13:25.107Z,6.30
2019-01-16T11:20:38.953Z,6.53
2019-01-16T11:27:56.653Z,6.10
2019-01-16T11:33:15.210Z,5.23
2019-01-16T11:38:28.421Z,4.80
2019-01-16T11:43:41.502Z,5.60
2019-01-16T11:48:58.553Z,5.33
2019-01-16T11:54:09.543Z,5.53
2019-01-16T11:59:20.312Z,5.30
2019-01-16T12:05:32.606Z,5.23
2019-01-16T12:10:43.681Z,5.40
2019-01-16T12:15:59.613Z,4.77
2019-01-16T12:21:11.457Z,4.40
2019-01-16T12:26:25.004Z,4.90
2019-01-16T12:31:41.741Z,5.17
2019-01-16T12:37:55.936Z,4.93
2019-01-16T12:43:14.368Z,4.00
2019-01-16T12:48:25.126Z,4.33
2019-01-16T12:53:35.630Z,4.07
2019-01-16T12:58:45.514Z,3.90
2019-01-16T13:03:57.829Z,3.70
2019-01-16T13:09:11.251Z,3.67
2019-01-16T13:14:29.974Z,4.17
2019-01-16T13:19:35.455Z,3.83
2019-01-16T13:24:46.364Z,3.70
2019-01-16T13:29:57.726Z,4.17
2019-01-16T13:35:08.559Z,3.47
2019-01-16T13:40:19.249Z,3.87
2019-01-16T13:45:30.239Z,3.80
2019-01-16T13:50:41.599Z,5.10
2019-01-16T13:55:52.235Z,3.70
2019-01-16T14:01:17.919Z,4.20
2019-01-16T14:06:29.436Z,3.97
2019-01-16T14:15:55.660Z,3.50
2019-01-16T14:21:07.383Z,4.00
2019-01-16T14:26:25.804Z,3.80
2019-01-16T14:31:36.632Z,3.83
2019-01-16T14:36:47.618Z,3.93
2019-01-16T14:43:03.458Z,3.70
2019-01-16T14:48:18.031Z,4.50
2019-01-16T14:53:28.591Z,3.90
2019-01-16T14:59:42.166Z,3.70
2019-01-16T15:05:23.355Z,4.20
2019-01-16T15:10:38.809Z,4.53
2019-01-16T15:16:47.338Z,3.80
2019-01-16T15:22:06.420Z,4.57
2019-01-16T15:27:13.875Z,5.23
2019-01-16T15:32:25.322Z,3.80
2019-01-16T15:37:37.188Z,3.97
2019-01-16T15:43:04.831Z,3.57
2019-01-16T15:48:15.885Z,3.67
2019-01-16T15:53:27.019Z,3.90
2019-01-16T15:58:36.530Z,4.33
2019-01-16T16:03:47.174Z,4.00
2019-01-16T16:10:59.769Z,4.27
2019-01-16T16:16:12.608Z,3.70
2019-01-16T16:21:23.523Z,4.10
2019-01-16T16:27:32.504Z,3.60
2019-01-16T16:32:43.178Z,3.67
2019-01-16T16:37:54.280Z,4.00
2019-01-16T16:43:09.832Z,4.50
2019-01-16T16:48:23.468Z,4.17
2019-01-16T16:53:33.923Z,4.17
2019-01-16T16:58:44.590Z,4.47
2019-01-16T17:03:55.609Z,3.77
2019-01-16T17:09:06.262Z,3.97
2019-01-16T17:14:19.027Z,4.00
2019-01-16T17:19:30.076Z,4.00
2019-01-16T17:25:00.579Z,4.47
2019-01-16T17:31:12.316Z,4.33
2019-01-16T17:36:23.772Z,4.87
2019-01-16T17:41:34.695Z,5.10
2019-01-16T17:47:17.536Z,4.80
2019-01-16T17:53:04.544Z,4.40
2019-01-16T17:58:14.030Z,4.23
2019-01-16T18:03:36.014Z,4.70
2019-01-16T18:08:48.544Z,4.40
2019-01-16T18:14:02.044Z,3.97
2019-01-16T18:19:11.902Z,5.13
2019-01-16T18:24:28.407Z,4.00
2019-01-16T18:29:39.154Z,4.73
2019-01-16T18:35:47.366Z,5.23
2019-01-16T18:41:00.781Z,5.00
2019-01-16T18:46:14.571Z,5.07
2019-01-16T18:51:26.890Z,5.20
2019-01-16T18:56:37.598Z,5.70
2019-01-16T19:03:55.428Z,5.20
2019-01-16T19:09:05.955Z,5.30
2019-01-16T19:14:20.678Z,5.40
2019-01-16T19:19:37.384Z,5.27
2019-01-16T19:25:45.535Z,5.60
2019-01-16T19:30:57.913Z,5.67
2019-01-16T19:36:24.531Z,6.30
2019-01-16T19:41:40.179Z,6.37
2019-01-16T19:46:51.160Z,6.70
2019-01-16T19:52:00.663Z,6.20
2019-01-16T19:59:16.276Z,5.80
2019-01-16T20:06:29.127Z,6.03
2019-01-16T20:11:40.147Z,5.97
2019-01-16T20:16:57.627Z,5.90
2019-01-16T20:22:12.923Z,6.57
2019-01-16T20:27:22.767Z,7.03
2019-01-16T20:34:40.341Z,6.40
2019-01-16T20:39:50.950Z,6.33
2019-01-16T20:45:01.859Z,7.30
2019-01-16T20:50:14.942Z,6.47
2019-01-16T20:55:29.445Z,6.07
2019-01-16T21:00:40.431Z,6.30
2019-01-16T21:05:51.171Z,6.83
2019-01-16T21:11:08.790Z,5.97
2019-01-16T21:16:32.406Z,6.33
2019-01-16T21:21:48.263Z,6.60
2019-01-16T21:26:59.237Z,5.97
2019-01-16T21:32:09.510Z,6.27
2019-01-16T21:37:30.769Z,5.80
2019-01-16T21:42:41.947Z,6.47
2019-01-16T21:48:55.587Z,6.33
2019-01-16T21:54:10.150Z,5.87
2019-01-16T21:59:21.846Z,6.80
2019-01-16T22:04:34.720Z,7.10
2019-01-16T22:09:45.419Z,6.73
2019-01-16T22:14:57.471Z,7.10
2019-01-16T22:20:14.583Z,5.70
2019-01-16T22:25:25.286Z,5.63
2019-01-16T22:30:37.779Z,5.87
2019-01-16T22:35:47.283Z,6.27
2019-01-16T22:40:58.546Z,6.03
2019-01-16T22:48:13.269Z,6.30
2019-01-16T22:53:25.980Z,6.17
2019-01-16T22:58:36.706Z,5.97
2019-01-16T23:03:51.483Z,6.03
2019-01-16T23:09:03.922Z,6.37
2019-01-16T23:14:25.603Z,7.10
2019-01-16T23:19:36.803Z,6.00
2019-01-16T23:25:50.666Z,6.73
2019-01-16T23:31:02.433Z,6.33
2019-01-16T23:36:13.895Z,6.77
2019-01-16T23:41:25.417Z,6.30
2019-01-16T23:46:36.091Z,6.37
2019-01-16T23:51:56.243Z,6.07
2019-01-16T23:57:07.843Z,6.73
